sensor_id;sensor_type;location;lat;lon;timestamp;pressure;altitude;pressure_sealevel;temperature;humidity
64158;BME280;50449;51.528;5.076;2023-04-09T00:01:57;102443.84;;;16.62;51.90
64158;BME280;50449;51.528;5.076;2023-04-09T00:04:22;102453.13;;;16.61;51.92
64158;BME280;50449;51.528;5.076;2023-04-09T00:06:48;102444.34;;;16.59;51.65
64158;BME280;50449;51.528;5.076;2023-04-09T00:09:13;102443.53;;;16.59;51.92
64158;BME280;50449;51.528;5.076;2023-04-09T00:11:39;102449.19;;;16.57;51.75
64158;BME280;50449;51.528;5.076;2023-04-09T00:14:04;102451.13;;;16.57;51.88
64158;BME280;50449;51.528;5.076;2023-04-09T00:16:30;102449.69;;;16.54;51.92
64158;BME280;50449;51.528;5.076;2023-04-09T00:18:55;102443.41;;;16.54;51.76
64158;BME280;50449;51.528;5.076;2023-04-09T00:21:21;102437.13;;;16.53;51.94
64158;BME280;50449;51.528;5.076;2023-04-09T00:23:46;102439.28;;;16.51;52.04
64158;BME280;50449;51.528;5.076;2023-04-09T00:26:12;102434.88;;;16.50;51.82
64158;BME280;50449;51.528;5.076;2023-04-09T00:28:37;102430.50;;;16.49;51.91
64158;BME280;50449;51.528;5.076;2023-04-09T00:31:03;102438.69;;;16.49;52.04
64158;BME280;50449;51.528;5.076;2023-04-09T00:33:28;102430.72;;;16.48;51.83
64158;BME280;50449;51.528;5.076;2023-04-09T00:35:54;102430.72;;;16.48;51.97
64158;BME280;50449;51.528;5.076;2023-04-09T00:38:19;102435.63;;;16.46;51.74
64158;BME280;50449;51.528;5.076;2023-04-09T00:40:49;102428.50;;;16.44;51.96
64158;BME280;50449;51.528;5.076;2023-04-09T00:43:15;102427.66;;;16.44;51.88
64158;BME280;50449;51.528;5.076;2023-04-09T00:45:41;102430.38;;;16.44;51.79
64158;BME280;50449;51.528;5.076;2023-04-09T00:48:06;102421.63;;;16.42;51.48
64158;BME280;50449;51.528;5.076;2023-04-09T00:50:32;102419.97;;;16.41;51.86
64158;BME280;50449;51.528;5.076;2023-04-09T00:52:58;102413.69;;;16.40;51.79
64158;BME280;50449;51.528;5.076;2023-04-09T00:55:24;102415.56;;;16.40;52.13
64158;BME280;50449;51.528;5.076;2023-04-09T00:57:49;102420.47;;;16.38;52.22
64158;BME280;50449;51.528;5.076;2023-04-09T01:00:15;102417.72;;;16.38;51.97
64158;BME280;50449;51.528;5.076;2023-04-09T01:02:40;102409.56;;;16.38;52.08
64158;BME280;50449;51.528;5.076;2023-04-09T01:05:07;102412.50;;;16.36;51.96
64158;BME280;50449;51.528;5.076;2023-04-09T01:13:23;102418.09;;;16.30;52.12
64158;BME280;50449;51.528;5.076;2023-04-09T01:15:56;102403.41;;;16.31;52.38
64158;BME280;50449;51.528;5.076;2023-04-09T01:18:34;102406.34;;;16.29;52.04
64158;BME280;50449;51.528;5.076;2023-04-09T01:21:06;102397.34;;;16.29;51.95
64158;BME280;50449;51.528;5.076;2023-04-09T01:29:31;102399.97;;;16.23;52.48
64158;BME280;50449;51.528;5.076;2023-04-09T01:31:58;102399.16;;;16.23;52.01
64158;BME280;50449;51.528;5.076;2023-04-09T01:34:27;102397.47;;;16.22;52.32
64158;BME280;50449;51.528;5.076;2023-04-09T01:36:56;102392.84;;;16.22;51.92
64158;BME280;50449;51.528;5.076;2023-04-09T01:39:23;102393.69;;;16.23;52.07
64158;BME280;50449;51.528;5.076;2023-04-09T01:41:49;102389.28;;;16.22;52.15
64158;BME280;50449;51.528;5.076;2023-04-09T01:44:16;102388.47;;;16.21;52.18
64158;BME280;50449;51.528;5.076;2023-04-09T01:46:42;102387.66;;;16.21;52.53
64158;BME280;50449;51.528;5.076;2023-04-09T01:49:11;102390.38;;;16.21;52.27
64158;BME280;50449;51.528;5.076;2023-04-09T01:51:36;102384.31;;;16.19;52.17
64158;BME280;50449;51.528;5.076;2023-04-09T01:54:02;102390.59;;;16.19;51.99
64158;BME280;50449;51.528;5.076;2023-04-09T01:56:45;102383.50;;;16.18;52.46
64158;BME280;50449;51.528;5.076;2023-04-09T01:59:11;102388.13;;;16.18;51.96
64158;BME280;50449;51.528;5.076;2023-04-09T02:01:48;102390.25;;;16.16;52.09
64158;BME280;50449;51.528;5.076;2023-04-09T02:04:20;102384.81;;;16.16;52.30
64158;BME280;50449;51.528;5.076;2023-04-09T02:06:56;102387.53;;;16.16;52.11
64158;BME280;50449;51.528;5.076;2023-04-09T02:09:23;102384.22;;;16.14;52.18
64158;BME280;50449;51.528;5.076;2023-04-09T02:11:52;102389.91;;;16.12;51.98
64158;BME280;50449;51.528;5.076;2023-04-09T02:14:18;102388.03;;;16.13;51.89
64158;BME280;50449;51.528;5.076;2023-04-09T02:16:45;102386.34;;;16.12;52.22
64158;BME280;50449;51.528;5.076;2023-04-09T02:19:11;102383.63;;;16.12;52.15
64158;BME280;50449;51.528;5.076;2023-04-09T02:21:36;102380.91;;;16.12;52.38
64158;BME280;50449;51.528;5.076;2023-04-09T02:24:02;102382.78;;;16.11;52.26
64158;BME280;50449;51.528;5.076;2023-04-09T02:26:27;102380.28;;;16.10;52.22
64158;BME280;50449;51.528;5.076;2023-04-09T02:28:52;102384.94;;;16.09;52.08
64158;BME280;50449;51.528;5.076;2023-04-09T02:31:18;102386.00;;;16.08;52.32
64158;BME280;50449;51.528;5.076;2023-04-09T02:33:43;102382.47;;;16.08;52.11
64158;BME280;50449;51.528;5.076;2023-04-09T02:36:12;102385.19;;;16.08;52.11
64158;BME280;50449;51.528;5.076;2023-04-09T02:38:40;102390.88;;;16.06;52.29
64158;BME280;50449;51.528;5.076;2023-04-09T02:41:06;102377.94;;;16.01;52.28
64158;BME280;50449;51.528;5.076;2023-04-09T02:43:31;102374.41;;;16.01;52.12
64158;BME280;50449;51.528;5.076;2023-04-09T02:45:57;102374.41;;;16.01;52.06
64158;BME280;50449;51.528;5.076;2023-04-09T02:48:22;102372.72;;;16.00;52.01
64158;BME280;50449;51.528;5.076;2023-04-09T02:50:48;102366.44;;;15.99;52.30
64158;BME280;50449;51.528;5.076;2023-04-09T02:53:13;102367.28;;;16.00;52.37
64158;BME280;50449;51.528;5.076;2023-04-09T02:55:39;102368.34;;;15.99;52.25
64158;BME280;50449;51.528;5.076;2023-04-09T02:58:05;102370.00;;;16.00;52.10
64158;BME280;50449;51.528;5.076;2023-04-09T03:00:30;102362.91;;;15.99;52.34
64158;BME280;50449;51.528;5.076;2023-04-09T03:02:56;102365.63;;;15.99;52.36
64158;BME280;50449;51.528;5.076;2023-04-09T03:05:22;102364.00;;;15.98;52.33
64158;BME280;50449;51.528;5.076;2023-04-09T03:07:47;102365.84;;;15.97;52.32
64158;BME280;50449;51.528;5.076;2023-04-09T03:10:13;102366.13;;;15.96;52.08
64158;BME280;50449;51.528;5.076;2023-04-09T03:12:39;102368.84;;;15.96;52.51
64158;BME280;50449;51.528;5.076;2023-04-09T03:15:05;102367.16;;;15.95;52.20
64158;BME280;50449;51.528;5.076;2023-04-09T03:17:31;102367.16;;;15.95;52.39
64158;BME280;50449;51.528;5.076;2023-04-09T03:19:56;102353.78;;;15.93;52.21
64158;BME280;50449;51.528;5.076;2023-04-09T03:22:22;102354.84;;;15.92;52.28
64158;BME280;50449;51.528;5.076;2023-04-09T03:24:47;102353.19;;;15.91;52.52
64158;BME280;50449;51.528;5.076;2023-04-09T03:27:12;102348.84;;;15.90;52.41
64158;BME280;50449;51.528;5.076;2023-04-09T03:29:38;102351.31;;;15.92;52.15
64158;BME280;50449;51.528;5.076;2023-04-09T03:32:03;102344.44;;;15.89;52.57
64158;BME280;50449;51.528;5.076;2023-04-09T03:34:29;102352.59;;;15.89;52.23
64158;BME280;50449;51.528;5.076;2023-04-09T03:36:54;102336.50;;;15.88;52.37
64158;BME280;50449;51.528;5.076;2023-04-09T03:39:20;102337.34;;;15.88;52.26
64158;BME280;50449;51.528;5.076;2023-04-09T03:41:45;102336.75;;;15.86;52.52
64158;BME280;50449;51.528;5.076;2023-04-09T03:44:10;102330.47;;;15.86;52.44
64158;BME280;50449;51.528;5.076;2023-04-09T03:46:36;102333.19;;;15.86;52.52
64158;BME280;50449;51.528;5.076;2023-04-09T03:49:01;102339.69;;;15.85;52.22
64158;BME280;50449;51.528;5.076;2023-04-09T03:51:27;102335.31;;;15.84;52.11
64158;BME280;50449;51.528;5.076;2023-04-09T03:53:52;102332.59;;;15.84;52.61
64158;BME280;50449;51.528;5.076;2023-04-09T03:56:17;102339.94;;;15.83;52.22
64158;BME280;50449;51.528;5.076;2023-04-09T03:58:43;102332.81;;;15.82;52.37
64158;BME280;50449;51.528;5.076;2023-04-09T04:01:08;102326.56;;;15.82;52.43
64158;BME280;50449;51.528;5.076;2023-04-09T04:03:34;102333.91;;;15.81;52.40
64158;BME280;50449;51.528;5.076;2023-04-09T04:06:02;102335.81;;;15.81;52.30
64158;BME280;50449;51.528;5.076;2023-04-09T04:08:28;102328.69;;;15.79;52.32
64158;BME280;50449;51.528;5.076;2023-04-09T04:10:53;102328.69;;;15.79;52.65
64158;BME280;50449;51.528;5.076;2023-04-09T04:13:19;102322.41;;;15.79;52.20
64158;BME280;50449;51.528;5.076;2023-04-09T04:15:45;102323.50;;;15.78;52.44
64158;BME280;50449;51.528;5.076;2023-04-09T04:18:10;102319.09;;;15.77;52.69
64158;BME280;50449;51.528;5.076;2023-04-09T04:20:36;102320.75;;;15.78;52.19
64158;BME280;50449;51.528;5.076;2023-04-09T04:23:03;102324.53;;;15.77;52.52
64158;BME280;50449;51.528;5.076;2023-04-09T04:25:29;102324.53;;;15.77;52.31
64158;BME280;50449;51.528;5.076;2023-04-09T04:27:54;102317.44;;;15.76;52.38
64158;BME280;50449;51.528;5.076;2023-04-09T04:30:20;102322.06;;;15.75;52.27
64158;BME280;50449;51.528;5.076;2023-04-09T04:32:47;102319.34;;;15.75;52.51
64158;BME280;50449;51.528;5.076;2023-04-09T04:35:12;102320.41;;;15.74;52.46
64158;BME280;50449;51.528;5.076;2023-04-09T04:37:38;102326.94;;;15.73;52.47
64158;BME280;50449;51.528;5.076;2023-04-09T04:40:06;102329.66;;;15.73;52.24
64158;BME280;50449;51.528;5.076;2023-04-09T04:42:32;102329.88;;;15.72;52.66
64158;BME280;50449;51.528;5.076;2023-04-09T04:44:57;102323.59;;;15.71;52.67
64158;BME280;50449;51.528;5.076;2023-04-09T04:47:22;102326.31;;;15.71;52.43
64158;BME280;50449;51.528;5.076;2023-04-09T04:49:48;102334.72;;;15.70;52.49
64158;BME280;50449;51.528;5.076;2023-04-09T04:52:13;102331.19;;;15.69;52.39
64158;BME280;50449;51.528;5.076;2023-04-09T04:54:39;102327.59;;;15.69;52.29
64158;BME280;50449;51.528;5.076;2023-04-09T04:57:04;102333.06;;;15.69;52.63
64158;BME280;50449;51.528;5.076;2023-04-09T04:59:30;102325.97;;;15.68;52.67
64158;BME280;50449;51.528;5.076;2023-04-09T05:01:55;102328.91;;;15.66;52.59
64158;BME280;50449;51.528;5.076;2023-04-09T05:04:21;102322.63;;;15.66;52.25
64158;BME280;50449;51.528;5.076;2023-04-09T05:06:46;102329.13;;;15.65;52.41
64158;BME280;50449;51.528;5.076;2023-04-09T05:09:11;102327.25;;;15.65;52.46
64158;BME280;50449;51.528;5.076;2023-04-09T05:11:37;102324.75;;;15.64;52.70
64158;BME280;50449;51.528;5.076;2023-04-09T05:14:02;102320.13;;;15.64;52.40
64158;BME280;50449;51.528;5.076;2023-04-09T05:16:28;102334.00;;;15.63;52.69
64158;BME280;50449;51.528;5.076;2023-04-09T05:18:54;102330.44;;;15.62;52.46
64158;BME280;50449;51.528;5.076;2023-04-09T05:21:19;102329.63;;;15.62;52.50
64158;BME280;50449;51.528;5.076;2023-04-09T05:23:45;102327.16;;;15.60;52.35
64158;BME280;50449;51.528;5.076;2023-04-09T05:26:10;102332.59;;;15.60;52.69
64158;BME280;50449;51.528;5.076;2023-04-09T05:28:36;102338.28;;;15.58;52.75
64158;BME280;50449;51.528;5.076;2023-04-09T05:31:04;102336.63;;;15.57;52.54
64158;BME280;50449;51.528;5.076;2023-04-09T05:33:31;102345.63;;;15.58;52.64
64158;BME280;50449;51.528;5.076;2023-04-09T05:36:01;102340.41;;;15.56;52.55
64158;BME280;50449;51.528;5.076;2023-04-09T05:38:27;102335.78;;;15.57;52.48
64158;BME280;50449;51.528;5.076;2023-04-09T05:40:52;102340.41;;;15.56;52.74
64158;BME280;50449;51.528;5.076;2023-04-09T05:43:17;102342.53;;;15.54;52.85
64158;BME280;50449;51.528;5.076;2023-04-09T05:45:43;102344.19;;;15.55;52.90
64158;BME280;50449;51.528;5.076;2023-04-09T05:48:08;102345.25;;;15.54;52.50
64158;BME280;50449;51.528;5.076;2023-04-09T05:50:34;102340.06;;;15.53;52.51
64158;BME280;50449;51.528;5.076;2023-04-09T05:52:59;102345.50;;;15.53;52.62
64158;BME280;50449;51.528;5.076;2023-04-09T05:55:24;102335.66;;;15.52;52.55
64158;BME280;50449;51.528;5.076;2023-04-09T05:57:53;102350.94;;;15.53;52.71
64158;BME280;50449;51.528;5.076;2023-04-09T06:00:18;102342.19;;;15.51;52.53
64158;BME280;50449;51.528;5.076;2023-04-09T06:02:44;102342.19;;;15.51;52.72
64158;BME280;50449;51.528;5.076;2023-04-09T06:05:09;102344.06;;;15.50;52.84
64158;BME280;50449;51.528;5.076;2023-04-09T06:07:35;102345.97;;;15.50;52.78
64158;BME280;50449;51.528;5.076;2023-04-09T06:10:01;102345.13;;;15.49;52.68
64158;BME280;50449;51.528;5.076;2023-04-09T06:12:27;102345.13;;;15.49;52.76
64158;BME280;50449;51.528;5.076;2023-04-09T06:14:52;102350.56;;;15.49;52.60
64158;BME280;50449;51.528;5.076;2023-04-09T06:17:17;102347.84;;;15.49;52.65
64158;BME280;50449;51.528;5.076;2023-04-09T06:19:43;102347.03;;;15.49;52.54
64158;BME280;50449;51.528;5.076;2023-04-09T06:22:09;102347.03;;;15.49;53.00
64158;BME280;50449;51.528;5.076;2023-04-09T06:24:35;102350.56;;;15.49;52.58
64158;BME280;50449;51.528;5.076;2023-04-09T06:27:00;102351.66;;;15.48;52.52
64158;BME280;50449;51.528;5.076;2023-04-09T06:29:26;102353.28;;;15.49;52.49
64158;BME280;50449;51.528;5.076;2023-04-09T06:31:51;102358.75;;;15.49;52.71
64158;BME280;50449;51.528;5.076;2023-04-09T06:34:17;102365.28;;;15.48;52.67
64158;BME280;50449;51.528;5.076;2023-04-09T06:36:42;102367.16;;;15.48;52.81
64158;BME280;50449;51.528;5.076;2023-04-09T06:39:08;102369.91;;;15.48;52.54
64158;BME280;50449;51.528;5.076;2023-04-09T06:41:34;102363.63;;;15.47;52.71
64158;BME280;50449;51.528;5.076;2023-04-09T06:43:59;102364.44;;;15.48;52.58
64158;BME280;50449;51.528;5.076;2023-04-09T06:46:25;102369.91;;;15.48;52.66
64158;BME280;50449;51.528;5.076;2023-04-09T06:48:52;102372.63;;;15.48;52.76
64158;BME280;50449;51.528;5.076;2023-04-09T06:51:17;102374.50;;;15.47;52.50
64158;BME280;50449;51.528;5.076;2023-04-09T06:53:42;102374.50;;;15.47;52.75
64158;BME280;50449;51.528;5.076;2023-04-09T06:56:08;102379.97;;;15.47;52.63
64158;BME280;50449;51.528;5.076;2023-04-09T06:58:33;102376.16;;;15.48;52.86
64158;BME280;50449;51.528;5.076;2023-04-09T07:00:59;102379.09;;;15.47;52.83
64158;BME280;50449;51.528;5.076;2023-04-09T07:03:25;102382.69;;;15.47;52.60
64158;BME280;50449;51.528;5.076;2023-04-09T07:05:52;102382.44;;;15.49;52.83
64158;BME280;50449;51.528;5.076;2023-04-09T07:08:18;102381.38;;;15.50;52.53
64158;BME280;50449;51.528;5.076;2023-04-09T07:10:43;102373.22;;;15.50;52.72
64158;BME280;50449;51.528;5.076;2023-04-09T07:13:11;102371.53;;;15.49;52.56
64158;BME280;50449;51.528;5.076;2023-04-09T07:15:36;102375.94;;;15.50;52.66
64158;BME280;50449;51.528;5.076;2023-04-09T07:18:02;102372.13;;;15.51;52.62
64158;BME280;50449;51.528;5.076;2023-04-09T07:20:27;102376.50;;;15.52;52.54
64158;BME280;50449;51.528;5.076;2023-04-09T07:22:53;102374.63;;;15.52;52.69
64158;BME280;50449;51.528;5.076;2023-04-09T07:25:18;102380.91;;;15.53;52.86
64158;BME280;50449;51.528;5.076;2023-04-09T07:27:44;102377.09;;;15.54;52.71
64158;BME280;50449;51.528;5.076;2023-04-09T07:30:09;102372.47;;;15.54;52.62
64158;BME280;50449;51.528;5.076;2023-04-09T07:32:35;102375.81;;;15.56;52.61
64158;BME280;50449;51.528;5.076;2023-04-09T07:35:02;102378.53;;;15.56;52.59
64158;BME280;50449;51.528;5.076;2023-04-09T07:37:29;102375.59;;;15.58;52.55
64158;BME280;50449;51.528;5.076;2023-04-09T07:39:55;102378.06;;;15.59;52.74
64158;BME280;50449;51.528;5.076;2023-04-09T07:42:21;102380.31;;;15.63;52.92
64158;BME280;50449;51.528;5.076;2023-04-09T07:44:46;102375.69;;;15.63;52.49
64158;BME280;50449;51.528;5.076;2023-04-09T07:47:12;102373.78;;;15.64;52.50
64158;BME280;50449;51.528;5.076;2023-04-09T07:49:37;102377.13;;;15.66;52.76
64158;BME280;50449;51.528;5.076;2023-04-09T07:52:04;102376.63;;;15.69;52.59
64158;BME280;50449;51.528;5.076;2023-04-09T07:54:30;102373.72;;;15.70;52.71
64158;BME280;50449;51.528;5.076;2023-04-09T07:56:56;102374.31;;;15.72;52.67
64158;BME280;50449;51.528;5.076;2023-04-09T07:59:22;102374.06;;;15.74;52.55
64158;BME280;50449;51.528;5.076;2023-04-09T08:01:47;102374.66;;;15.76;52.79
64158;BME280;50449;51.528;5.076;2023-04-09T08:04:13;102379.88;;;15.77;52.73
64158;BME280;50449;51.528;5.076;2023-04-09T08:06:38;102375.84;;;15.80;52.57
64158;BME280;50449;51.528;5.076;2023-04-09T08:09:04;102384.59;;;15.82;52.85
64158;BME280;50449;51.528;5.076;2023-04-09T08:11:29;102382.72;;;15.83;52.86
64158;BME280;50449;51.528;5.076;2023-04-09T08:13:55;102393.38;;;15.84;53.12
64158;BME280;50449;51.528;5.076;2023-04-09T08:16:22;102375.97;;;15.85;52.89
64158;BME280;50449;51.528;5.076;2023-04-09T08:18:51;102381.97;;;15.87;53.11
64158;BME280;50449;51.528;5.076;2023-04-09T08:21:17;102377.38;;;15.88;53.20
64158;BME280;50449;51.528;5.076;2023-04-09T08:23:43;102375.22;;;15.90;53.23
64158;BME280;50449;51.528;5.076;2023-04-09T08:26:08;102365.19;;;15.90;53.13
64158;BME280;50449;51.528;5.076;2023-04-09T08:28:33;102372.88;;;15.93;53.02
64158;BME280;50449;51.528;5.076;2023-04-09T08:31:00;102371.78;;;15.94;53.02
64158;BME280;50449;51.528;5.076;2023-04-09T08:33:26;102374.28;;;15.96;53.36
64158;BME280;50449;51.528;5.076;2023-04-09T08:35:51;102375.72;;;15.98;53.54
64158;BME280;50449;51.528;5.076;2023-04-09T08:38:18;102377.13;;;16.01;52.85
64158;BME280;50449;51.528;5.076;2023-04-09T08:40:43;102380.44;;;16.03;53.34
64158;BME280;50449;51.528;5.076;2023-04-09T08:43:09;102375.81;;;16.04;53.24
64158;BME280;50449;51.528;5.076;2023-04-09T08:45:40;102375.22;;;16.01;53.31
64158;BME280;50449;51.528;5.076;2023-04-09T08:48:08;102384.00;;;16.04;53.21
64158;BME280;50449;51.528;5.076;2023-04-09T08:50:34;102381.88;;;16.06;53.12
64158;BME280;50449;51.528;5.076;2023-04-09T08:53:02;102385.19;;;16.08;53.40
64158;BME280;50449;51.528;5.076;2023-04-09T08:55:28;102376.41;;;16.06;53.45
64158;BME280;50449;51.528;5.076;2023-04-09T08:57:55;102374.28;;;16.08;53.33
64158;BME280;50449;51.528;5.076;2023-04-09T09:00:22;102375.69;;;16.10;53.32
64158;BME280;50449;51.528;5.076;2023-04-09T09:03:02;102370.81;;;16.12;53.60
64158;BME280;50449;51.528;5.076;2023-04-09T09:05:39;102363.22;;;16.14;53.60
64158;BME280;50449;51.528;5.076;2023-04-09T09:08:09;102366.56;;;16.16;53.18
64158;BME280;50449;51.528;5.076;2023-04-09T09:10:43;102365.47;;;16.17;53.27
64158;BME280;50449;51.528;5.076;2023-04-09T09:13:27;102358.72;;;16.20;53.42
64158;BME280;50449;51.528;5.076;2023-04-09T09:15:54;102358.25;;;16.23;53.23
64158;BME280;50449;51.528;5.076;2023-04-09T09:18:36;102356.94;;;16.26;53.52
64158;BME280;50449;51.528;5.076;2023-04-09T09:21:28;102361.31;;;16.27;53.65
64158;BME280;50449;51.528;5.076;2023-04-09T09:23:54;102357.84;;;16.31;53.47
64158;BME280;50449;51.528;5.076;2023-04-09T09:26:25;102363.06;;;16.33;53.51
64158;BME280;50449;51.528;5.076;2023-04-09T09:28:51;102352.50;;;16.36;53.45
64158;BME280;50449;51.528;5.076;2023-04-09T09:31:19;102356.88;;;16.37;53.42
64158;BME280;50449;51.528;5.076;2023-04-09T09:33:45;102361.28;;;16.38;53.67
64158;BME280;50449;51.528;5.076;2023-04-09T09:36:11;102361.63;;;16.42;53.69
64158;BME280;50449;51.528;5.076;2023-04-09T09:38:56;102349.66;;;16.43;53.50
64158;BME280;50449;51.528;5.076;2023-04-09T09:41:22;102346.44;;;16.46;53.61
64158;BME280;50449;51.528;5.076;2023-04-09T09:43:48;102347.03;;;16.48;53.71
64158;BME280;50449;51.528;5.076;2023-04-09T09:46:14;102341.06;;;16.51;53.82
64158;BME280;50449;51.528;5.076;2023-04-09T09:48:40;102351.50;;;16.54;53.78
64158;BME280;50449;51.528;5.076;2023-04-09T09:51:10;102350.19;;;16.57;53.26
64158;BME280;50449;51.528;5.076;2023-04-09T09:53:37;102340.69;;;16.59;53.45
64158;BME280;50449;51.528;5.076;2023-04-09T09:56:13;102348.84;;;16.59;53.66
64158;BME280;50449;51.528;5.076;2023-04-09T09:58:52;102337.72;;;16.61;53.63
64158;BME280;50449;51.528;5.076;2023-04-09T10:01:21;102332.59;;;16.64;53.57
64158;BME280;50449;51.528;5.076;2023-04-09T10:03:48;102328.53;;;16.67;53.63
64158;BME280;50449;51.528;5.076;2023-04-09T10:06:15;102320.72;;;16.71;53.45
64158;BME280;50449;51.528;5.076;2023-04-09T10:08:41;102316.66;;;16.73;53.93
64158;BME280;50449;51.528;5.076;2023-04-09T10:11:07;102318.88;;;16.76;53.96
64158;BME280;50449;51.528;5.076;2023-04-09T10:13:36;102317.59;;;16.79;53.56
64158;BME280;50449;51.528;5.076;2023-04-09T10:16:03;102313.56;;;16.81;53.96
64158;BME280;50449;51.528;5.076;2023-04-09T10:18:29;102316.59;;;16.85;53.59
64158;BME280;50449;51.528;5.076;2023-04-09T10:21:02;102306.28;;;16.87;53.70
64158;BME280;50449;51.528;5.076;2023-04-09T10:23:38;102301.41;;;16.89;53.63
64158;BME280;50449;51.528;5.076;2023-04-09T10:26:04;102298.16;;;16.92;53.49
64158;BME280;50449;51.528;5.076;2023-04-09T10:28:30;102303.13;;;16.95;53.82
64158;BME280;50449;51.528;5.076;2023-04-09T10:30:57;102293.63;;;16.98;53.92
64158;BME280;50449;51.528;5.076;2023-04-09T10:33:25;102291.25;;;17.01;53.72
64158;BME280;50449;51.528;5.076;2023-04-09T10:35:52;102289.09;;;17.03;53.48
64158;BME280;50449;51.528;5.076;2023-04-09T10:38:32;102288.00;;;17.04;53.80
64158;BME280;50449;51.528;5.076;2023-04-09T10:41:05;102284.78;;;17.07;53.97
64158;BME280;50449;51.528;5.076;2023-04-09T10:43:34;102285.94;;;17.12;53.59
64158;BME280;50449;51.528;5.076;2023-04-09T10:46:00;102281.53;;;17.11;54.06
64158;BME280;50449;51.528;5.076;2023-04-09T10:48:26;102275.59;;;17.14;53.98
64158;BME280;50449;51.528;5.076;2023-04-09T10:50:51;102274.28;;;17.16;53.75
64158;BME280;50449;51.528;5.076;2023-04-09T10:53:21;102275.41;;;17.20;53.72
64158;BME280;50449;51.528;5.076;2023-04-09T10:55:48;102276.81;;;17.23;53.96
64158;BME280;50449;51.528;5.076;2023-04-09T10:58:17;102267.88;;;17.27;53.98
64158;BME280;50449;51.528;5.076;2023-04-09T11:00:47;102276.66;;;17.29;53.75
64158;BME280;50449;51.528;5.076;2023-04-09T11:03:27;102275.31;;;17.32;53.24
64158;BME280;50449;51.528;5.076;2023-04-09T11:05:59;102271.84;;;17.37;53.74
64158;BME280;50449;51.528;5.076;2023-04-09T11:08:28;102269.44;;;17.40;53.31
64158;BME280;50449;51.528;5.076;2023-04-09T11:10:54;102261.56;;;17.44;53.44
64158;BME280;50449;51.528;5.076;2023-04-09T11:13:22;102260.25;;;17.46;53.42
64158;BME280;50449;51.528;5.076;2023-04-09T11:15:48;102255.09;;;17.50;53.88
64158;BME280;50449;51.528;5.076;2023-04-09T11:18:25;102251.03;;;17.52;53.42
64158;BME280;50449;51.528;5.076;2023-04-09T11:20:55;102257.66;;;17.57;53.42
64158;BME280;50449;51.528;5.076;2023-04-09T11:23:21;102255.22;;;17.60;53.23
64158;BME280;50449;51.528;5.076;2023-04-09T11:25:50;102253.06;;;17.62;53.03
64158;BME280;50449;51.528;5.076;2023-04-09T11:28:16;102249.81;;;17.65;53.49
64158;BME280;50449;51.528;5.076;2023-04-09T11:30:42;102249.31;;;17.68;53.65
64158;BME280;50449;51.528;5.076;2023-04-09T11:33:08;102251.56;;;17.71;53.68
64158;BME280;50449;51.528;5.076;2023-04-09T11:35:34;102251.88;;;17.75;53.76
64158;BME280;50449;51.528;5.076;2023-04-09T11:38:05;102243.16;;;17.78;53.40
64158;BME280;50449;51.528;5.076;2023-04-09T11:40:30;102247.06;;;17.82;53.67
64158;BME280;50449;51.528;5.076;2023-04-09T11:42:56;102243.00;;;17.85;53.32
64158;BME280;50449;51.528;5.076;2023-04-09T11:45:27;102237.00;;;17.88;53.40
64158;BME280;50449;51.528;5.076;2023-04-09T11:47:53;102239.22;;;17.91;53.72
64158;BME280;50449;51.528;5.076;2023-04-09T11:50:20;102233.25;;;17.94;53.57
64158;BME280;50449;51.528;5.076;2023-04-09T11:52:45;102238.22;;;17.97;53.81
64158;BME280;50449;51.528;5.076;2023-04-09T11:55:24;102240.69;;;17.99;53.51
64158;BME280;50449;51.528;5.076;2023-04-09T11:57:50;102248.66;;;18.00;53.46
64158;BME280;50449;51.528;5.076;2023-04-09T12:00:16;102245.41;;;18.03;53.23
64158;BME280;50449;51.528;5.076;2023-04-09T12:02:45;102245.72;;;18.07;53.67
64158;BME280;50449;51.528;5.076;2023-04-09T12:05:31;102242.47;;;18.10;53.77
64158;BME280;50449;51.528;5.076;2023-04-09T12:08:02;102236.22;;;18.14;53.70
64158;BME280;50449;51.528;5.076;2023-04-09T12:10:34;102235.72;;;18.17;53.74
64158;BME280;50449;51.528;5.076;2023-04-09T12:13:02;102234.38;;;18.20;53.75
64158;BME280;50449;51.528;5.076;2023-04-09T12:15:37;102237.16;;;18.25;53.74
64158;BME280;50449;51.528;5.076;2023-04-09T12:18:06;102229.53;;;18.27;53.47
64158;BME280;50449;51.528;5.076;2023-04-09T12:20:32;102226.28;;;18.30;53.44
64158;BME280;50449;51.528;5.076;2023-04-09T12:22:59;102231.47;;;18.32;53.31
64158;BME280;50449;51.528;5.076;2023-04-09T12:25:27;102231.78;;;18.35;53.13
64158;BME280;50449;51.528;5.076;2023-04-09T12:27:54;102229.34;;;18.39;52.80
64158;BME280;50449;51.528;5.076;2023-04-09T12:30:20;102221.72;;;18.41;53.15
64158;BME280;50449;51.528;5.076;2023-04-09T12:32:46;102221.19;;;18.44;53.32
64158;BME280;50449;51.528;5.076;2023-04-09T12:35:12;102214.38;;;18.47;52.82
64158;BME280;50449;51.528;5.076;2023-04-09T12:37:38;102214.94;;;18.49;53.24
64158;BME280;50449;51.528;5.076;2023-04-09T12:40:03;102204.31;;;18.52;53.08
64158;BME280;50449;51.528;5.076;2023-04-09T12:42:29;102206.25;;;18.57;52.65
64158;BME280;50449;51.528;5.076;2023-04-09T12:44:57;102209.31;;;18.60;53.11
64158;BME280;50449;51.528;5.076;2023-04-09T12:47:23;102209.88;;;18.63;52.81
64158;BME280;50449;51.528;5.076;2023-04-09T12:49:48;102215.63;;;18.66;53.25
64158;BME280;50449;51.528;5.076;2023-04-09T12:52:14;102210.72;;;18.68;53.19
64158;BME280;50449;51.528;5.076;2023-04-09T12:54:40;102211.88;;;18.72;52.79
64158;BME280;50449;51.528;5.076;2023-04-09T12:57:06;102213.25;;;18.75;53.06
64158;BME280;50449;51.528;5.076;2023-04-09T12:59:31;102204.56;;;18.78;53.41
64158;BME280;50449;51.528;5.076;2023-04-09T13:01:57;102198.53;;;18.81;53.07